createdAt,value
2022-10-23T00:01:31.806Z,12.45
2022-10-23T00:04:21.014Z,12.15
2022-10-23T00:06:49.465Z,13.23
2022-10-23T00:09:22.871Z,13.26
2022-10-23T00:11:51.082Z,13.21
2022-10-23T00:14:21.531Z,13.04
2022-10-23T00:16:49.064Z,13.35
2022-10-23T00:19:16.410Z,13.18
2022-10-23T00:21:44.080Z,12.77
2022-10-23T00:24:11.452Z,12.67
2022-10-23T00:26:40.543Z,12.45
2022-10-23T00:29:08.951Z,12.96
2022-10-23T00:31:36.996Z,13.31
2022-10-23T00:34:08.094Z,13.03
2022-10-23T00:36:36.169Z,12.63
2022-10-23T00:39:04.573Z,12.24
2022-10-23T00:41:32.717Z,12.23
2022-10-23T00:44:07.150Z,12.35
2022-10-23T00:46:35.339Z,12.31
2022-10-23T00:49:04.492Z,12.22
2022-10-23T00:51:36.436Z,12.71
2022-10-23T00:54:23.909Z,12.62
2022-10-23T00:56:55.210Z,13.32
2022-10-23T00:59:23.247Z,13.02
2022-10-23T01:01:50.890Z,13.29
2022-10-23T01:04:18.676Z,13.23
2022-10-23T01:07:01.957Z,12.69
2022-10-23T01:09:34.829Z,12.49
2022-10-23T01:12:22.553Z,12.68
2022-10-23T01:14:58.867Z,12.25
2022-10-23T01:17:44.412Z,12.20
2022-10-23T01:20:40.029Z,11.77
2022-10-23T01:23:32.917Z,11.25
2022-10-23T01:26:20.657Z,11.69
2022-10-23T01:28:55.995Z,11.33
2022-10-23T01:31:30.983Z,12.09
2022-10-23T01:34:03.104Z,11.12
2022-10-23T01:36:32.156Z,10.74
2022-10-23T01:41:40.574Z,11.25
2022-10-23T01:44:17.760Z,11.03
2022-10-23T01:46:47.078Z,10.84
2022-10-23T01:49:15.105Z,10.72
2022-10-23T01:52:00.535Z,10.74
2022-10-23T01:54:34.141Z,10.61
2022-10-23T01:57:02.942Z,10.51
2022-10-23T01:59:35.274Z,10.42
2022-10-23T02:02:04.958Z,10.24
2022-10-23T02:04:41.124Z,10.21
2022-10-23T02:07:08.829Z,10.19
2022-10-23T02:09:36.580Z,10.40
2022-10-23T02:12:09.610Z,10.30
2022-10-23T02:14:43.405Z,10.31
2022-10-23T02:17:19.421Z,10.25
2022-10-23T02:19:51.200Z,10.27
2022-10-23T02:22:25.714Z,10.28
2022-10-23T02:24:58.110Z,10.32
2022-10-23T02:27:40.822Z,10.43
2022-10-23T02:30:10.461Z,10.29
2022-10-23T02:32:42.712Z,10.38
2022-10-23T02:35:11.509Z,10.51
2022-10-23T02:37:39.626Z,10.42
2022-10-23T02:40:09.677Z,10.32
2022-10-23T02:42:47.328Z,10.37
2022-10-23T02:45:28.160Z,10.46
2022-10-23T02:48:01.915Z,10.36
2022-10-23T02:50:38.581Z,10.22
2022-10-23T02:53:29.179Z,10.26
2022-10-23T02:56:15.608Z,10.42
2022-10-23T02:59:06.208Z,10.81
2022-10-23T03:01:40.232Z,10.68
2022-10-23T03:04:09.317Z,10.67
2022-10-23T03:06:37.332Z,10.41
2022-10-23T03:09:07.907Z,10.57
2022-10-23T03:11:35.677Z,10.59
2022-10-23T03:14:03.592Z,10.60
2022-10-23T03:16:31.009Z,10.53
2022-10-23T03:18:58.420Z,10.95
2022-10-23T03:21:26.161Z,11.84
2022-10-23T03:23:53.646Z,11.68
2022-10-23T03:26:21.550Z,11.08
2022-10-23T03:28:49.182Z,10.35
2022-10-23T03:31:16.719Z,10.09
2022-10-23T03:33:44.504Z,10.24
2022-10-23T03:36:12.336Z,10.11
2022-10-23T03:38:40.397Z,10.11
2022-10-23T03:41:07.812Z,10.13
2022-10-23T03:43:35.481Z,10.47
2022-10-23T03:46:03.020Z,10.48
2022-10-23T03:48:30.364Z,10.31
2022-10-23T03:50:58.231Z,10.09
2022-10-23T03:53:25.617Z,10.12
2022-10-23T03:55:53.446Z,10.03
2022-10-23T03:58:21.046Z,9.94
2022-10-23T04:00:49.347Z,9.77
2022-10-23T04:03:16.962Z,9.80
2022-10-23T04:05:44.312Z,10.09
2022-10-23T04:08:14.118Z,10.06
2022-10-23T04:10:43.978Z,10.09
2022-10-23T04:13:11.359Z,9.88
2022-10-23T04:15:38.791Z,9.92
2022-10-23T04:18:06.407Z,9.94
2022-10-23T04:20:33.772Z,10.30
2022-10-23T04:23:01.838Z,9.86
2022-10-23T04:25:29.515Z,9.72
2022-10-23T04:27:56.842Z,9.87
2022-10-23T04:30:24.199Z,9.52
2022-10-23T04:32:52.205Z,9.33
2022-10-23T04:35:20.247Z,9.33
2022-10-23T04:37:47.648Z,9.21
2022-10-23T04:40:15.325Z,9.17
2022-10-23T04:42:42.996Z,9.12
2022-10-23T04:45:10.896Z,9.11
2022-10-23T04:47:40.992Z,9.34
2022-10-23T04:50:08.345Z,9.60
2022-10-23T04:52:35.755Z,9.29
2022-10-23T04:55:04.077Z,9.55
2022-10-23T04:57:31.565Z,9.64
2022-10-23T04:59:59.197Z,10.06
2022-10-23T05:02:27.738Z,10.88
2022-10-23T05:04:55.286Z,10.69
2022-10-23T05:07:27.298Z,11.53
2022-10-23T05:09:55.076Z,11.52
2022-10-23T05:12:25.427Z,11.39
2022-10-23T05:14:53.464Z,10.17
2022-10-23T05:17:24.344Z,9.70
2022-10-23T05:22:25.714Z,9.30
2022-10-23T05:24:53.927Z,9.12
2022-10-23T05:27:21.975Z,8.99
2022-10-23T05:29:50.913Z,8.57
2022-10-23T05:32:19.077Z,9.44
2022-10-23T05:34:46.892Z,9.27
2022-10-23T05:37:15.733Z,9.16
2022-10-23T05:39:43.526Z,9.32
2022-10-23T05:42:11.286Z,9.97
2022-10-23T05:44:38.981Z,10.92
2022-10-23T05:47:07.773Z,9.90
2022-10-23T05:49:36.246Z,9.40
2022-10-23T05:52:07.435Z,9.39
2022-10-23T05:54:34.916Z,9.37
2022-10-23T05:57:03.151Z,9.21
2022-10-23T05:59:30.713Z,9.13
2022-10-23T06:01:58.431Z,9.24
2022-10-23T06:04:27.269Z,9.36
2022-10-23T06:06:55.165Z,9.47
2022-10-23T06:09:23.901Z,9.48
2022-10-23T06:11:54.072Z,9.22
2022-10-23T06:14:22.458Z,9.33
2022-10-23T06:16:50.237Z,9.47
2022-10-23T06:19:18.194Z,9.42
2022-10-23T06:21:45.772Z,9.47
2022-10-23T06:24:13.437Z,9.75
2022-10-23T06:26:42.472Z,10.03
2022-10-23T06:29:09.926Z,10.14
2022-10-23T06:31:37.462Z,10.16
2022-10-23T06:34:06.155Z,10.09
2022-10-23T06:36:33.675Z,9.93
2022-10-23T06:39:01.621Z,9.80
2022-10-23T06:41:33.872Z,10.07
2022-10-23T06:44:01.755Z,10.36
2022-10-23T06:46:35.111Z,10.41
2022-10-23T06:49:03.818Z,10.34
2022-10-23T06:51:31.798Z,10.48
2022-10-23T06:53:59.644Z,11.11
2022-10-23T06:56:30.383Z,11.67
2022-10-23T06:58:59.676Z,11.54
2022-10-23T07:01:27.313Z,11.03
2022-10-23T07:03:55.038Z,11.33
2022-10-23T07:06:24.149Z,11.18
2022-10-23T07:08:52.248Z,11.72
2022-10-23T07:11:21.244Z,12.94
2022-10-23T07:13:49.351Z,13.44
2022-10-23T07:16:20.174Z,13.52
2022-10-23T07:18:49.214Z,13.39
2022-10-23T07:21:19.293Z,13.51
2022-10-23T07:23:47.625Z,13.82
2022-10-23T07:26:16.062Z,14.01
2022-10-23T07:28:45.117Z,13.89
2022-10-23T07:31:14.037Z,13.48
2022-10-23T07:33:43.424Z,13.69
2022-10-23T07:36:13.498Z,14.18
2022-10-23T07:38:41.450Z,14.22
2022-10-23T07:41:11.601Z,14.52
2022-10-23T07:43:40.059Z,14.34
2022-10-23T07:46:09.865Z,14.13
2022-10-23T07:48:38.658Z,14.34
2022-10-23T07:51:13.344Z,13.41
2022-10-23T07:53:41.902Z,14.13
2022-10-23T07:56:29.750Z,12.77
2022-10-23T07:58:59.151Z,13.08
2022-10-23T08:01:35.127Z,13.68
2022-10-23T08:04:03.595Z,14.61
2022-10-23T08:06:31.238Z,13.72
2022-10-23T08:09:00.908Z,13.84
2022-10-23T08:11:35.394Z,14.20
2022-10-23T08:14:05.300Z,13.90
2022-10-23T08:16:36.122Z,13.45
2022-10-23T08:19:06.846Z,14.02
2022-10-23T08:21:34.795Z,13.52
2022-10-23T08:24:02.584Z,14.33
2022-10-23T08:26:30.462Z,14.75
2022-10-23T08:28:59.048Z,15.41
2022-10-23T08:31:26.762Z,15.98
2022-10-23T08:33:55.834Z,16.15
2022-10-23T08:36:28.849Z,14.95
2022-10-23T08:38:57.587Z,15.13
2022-10-23T08:41:34.501Z,16.14
2022-10-23T08:44:07.852Z,16.34
2022-10-23T08:46:41.631Z,16.25
2022-10-23T08:49:35.767Z,16.57
2022-10-23T08:52:14.050Z,16.84
2022-10-23T08:54:52.024Z,16.76
2022-10-23T08:57:22.391Z,16.03
2022-10-23T08:59:59.480Z,16.64
2022-10-23T09:02:30.842Z,16.80
2022-10-23T09:04:58.881Z,16.98
2022-10-23T09:07:47.508Z,17.12
2022-10-23T09:10:37.436Z,16.43
2022-10-23T09:13:43.569Z,17.46
2022-10-23T09:16:31.516Z,17.18
2022-10-23T09:18:59.514Z,17.06
2022-10-23T09:21:28.344Z,17.15
2022-10-23T09:23:56.376Z,17.16
2022-10-23T09:26:23.764Z,16.77
2022-10-23T09:28:55.400Z,17.27
2022-10-23T09:31:22.791Z,17.35
2022-10-23T09:34:01.703Z,17.98
2022-10-23T09:36:29.589Z,18.67
2022-10-23T09:38:58.996Z,18.45
2022-10-23T09:41:37.962Z,17.90
2022-10-23T09:44:08.827Z,17.54
2022-10-23T09:47:09.175Z,17.73
2022-10-23T09:49:40.062Z,17.77
2022-10-23T09:52:10.203Z,18.12
2022-10-23T09:54:44.682Z,18.21
2022-10-23T09:57:34.138Z,18.34
2022-10-23T10:00:07.986Z,18.77
2022-10-23T10:02:39.117Z,18.68
2022-10-23T10:05:31.043Z,19.05
2022-10-23T10:08:05.629Z,19.17
2022-10-23T10:10:37.016Z,18.69
2022-10-23T10:13:26.440Z,18.87
2022-10-23T10:16:01.039Z,18.35
2022-10-23T10:18:41.504Z,18.88
2022-10-23T10:21:13.712Z,19.09
2022-10-23T10:23:45.262Z,19.38
2022-10-23T10:26:25.121Z,19.17
2022-10-23T10:29:13.972Z,18.77
2022-10-23T10:31:53.744Z,19.00
2022-10-23T10:34:30.099Z,18.98
2022-10-23T10:37:00.023Z,18.94
2022-10-23T10:39:53.751Z,19.08
2022-10-23T10:42:49.612Z,19.20
2022-10-23T10:45:27.825Z,19.33
2022-10-23T10:48:22.871Z,20.08
2022-10-23T10:51:00.715Z,19.12
2022-10-23T10:54:24.216Z,18.82
2022-10-23T10:56:51.628Z,18.87
2022-10-23T10:59:31.080Z,18.87
2022-10-23T11:02:13.862Z,19.38
2022-10-23T11:04:50.571Z,18.87
2022-10-23T11:07:22.158Z,19.63
2022-10-23T11:09:50.219Z,20.40
2022-10-23T11:12:26.887Z,20.53
2022-10-23T11:14:54.502Z,21.08
2022-10-23T11:17:35.851Z,21.35
2022-10-23T11:20:15.880Z,21.74
2022-10-23T11:22:50.345Z,22.22
2022-10-23T11:25:28.666Z,22.45
2022-10-23T11:28:04.419Z,21.62
2022-10-23T11:31:12.341Z,22.01
2022-10-23T11:33:52.135Z,21.79
2022-10-23T11:36:32.584Z,22.57
2022-10-23T11:39:15.053Z,22.35
2022-10-23T11:41:49.941Z,21.95
2022-10-23T11:44:40.423Z,22.13
2022-10-23T11:47:26.747Z,21.89
2022-10-23T11:50:09.320Z,20.33
2022-10-23T11:52:45.697Z,20.64
2022-10-23T11:55:29.542Z,21.09
2022-10-23T11:58:20.449Z,22.09
2022-10-23T12:00:55.378Z,21.16
2022-10-23T12:03:28.608Z,22.13
2022-10-23T12:06:05.911Z,20.93
2022-10-23T12:08:36.108Z,22.06
2022-10-23T12:11:03.574Z,22.62
2022-10-23T12:13:37.635Z,22.78
2022-10-23T12:16:07.596Z,22.82
2022-10-23T12:18:53.074Z,21.76
2022-10-23T12:21:28.436Z,20.34
2022-10-23T12:24:14.316Z,21.74
2022-10-23T12:26:55.420Z,20.38
2022-10-23T12:29:40.950Z,20.98
2022-10-23T12:32:38.138Z,20.87
2022-10-23T12:35:17.802Z,21.72
2022-10-23T12:37:49.749Z,21.76
2022-10-23T12:40:17.801Z,21.52
2022-10-23T12:42:51.074Z,21.72
2022-10-23T12:45:19.722Z,21.65
2022-10-23T12:47:48.916Z,21.62
2022-10-23T12:50:22.336Z,21.56
2022-10-23T12:52:58.456Z,21.68
2022-10-23T12:55:30.864Z,21.93
2022-10-23T12:58:01.195Z,21.62
2022-10-23T13:00:51.109Z,21.17
2022-10-23T13:03:20.758Z,21.40
2022-10-23T13:05:50.469Z,21.59
2022-10-23T13:08:18.693Z,21.50
2022-10-23T13:10:48.439Z,21.29
2022-10-23T13:13:22.304Z,21.21
2022-10-23T13:15:50.375Z,21.30
2022-10-23T13:18:18.263Z,20.91
2022-10-23T13:20:51.724Z,20.93
2022-10-23T13:23:31.405Z,20.93
2022-10-23T13:26:03.210Z,20.34
2022-10-23T13:28:49.103Z,20.38
2022-10-23T13:31:16.368Z,20.56
2022-10-23T13:33:46.547Z,20.62
2022-10-23T13:36:13.789Z,20.60
2022-10-23T13:38:43.289Z,20.72
2022-10-23T13:41:19.574Z,20.89
2022-10-23T13:43:47.772Z,20.80
2022-10-23T13:46:20.455Z,20.93
2022-10-23T13:48:48.588Z,20.89
2022-10-23T13:51:24.614Z,21.05
2022-10-23T13:53:52.836Z,20.70
2022-10-23T13:56:22.295Z,20.84
2022-10-23T13:58:49.990Z,20.58
2022-10-23T14:01:30.005Z,20.18
2022-10-23T14:03:58.776Z,19.71
2022-10-23T14:06:26.307Z,19.79
2022-10-23T14:08:53.700Z,19.66
2022-10-23T14:11:21.799Z,19.53
2022-10-23T14:13:49.582Z,19.98
2022-10-23T14:16:19.175Z,19.55
2022-10-23T14:18:47.510Z,19.26
2022-10-23T14:21:17.798Z,19.26
2022-10-23T14:23:45.176Z,19.27
2022-10-23T14:26:15.450Z,18.99
2022-10-23T14:28:43.130Z,19.34
2022-10-23T14:31:16.584Z,19.31
2022-10-23T14:33:45.876Z,19.22
2022-10-23T14:36:13.353Z,19.20
2022-10-23T14:38:40.747Z,19.27
2022-10-23T14:41:12.986Z,19.05
2022-10-23T14:43:40.762Z,19.02
2022-10-23T14:46:35.615Z,19.03
2022-10-23T14:49:02.956Z,19.21
2022-10-23T14:51:31.204Z,19.13
2022-10-23T14:54:03.634Z,18.88
2022-10-23T14:56:37.758Z,18.65
2022-10-23T14:59:05.387Z,18.79
2022-10-23T15:01:36.259Z,18.80
2022-10-23T15:04:04.559Z,18.77
2022-10-23T15:06:33.271Z,18.92
2022-10-23T15:09:01.340Z,18.90
2022-10-23T15:11:28.973Z,18.64
2022-10-23T15:13:56.930Z,18.74
2022-10-23T15:16:24.808Z,18.68
2022-10-23T15:18:52.564Z,18.67
2022-10-23T15:21:20.123Z,18.80
2022-10-23T15:23:47.848Z,18.56
2022-10-23T15:26:21.166Z,18.72
2022-10-23T15:28:59.696Z,18.59
2022-10-23T15:31:30.583Z,18.73
2022-10-23T15:33:58.895Z,18.73
2022-10-23T15:36:27.071Z,18.56
2022-10-23T15:38:54.597Z,18.46
2022-10-23T15:41:28.416Z,18.18
2022-10-23T15:43:56.016Z,18.48
2022-10-23T15:46:23.633Z,18.62
2022-10-23T15:48:51.272Z,18.95
2022-10-23T15:51:20.137Z,18.95
2022-10-23T15:53:49.354Z,18.93
2022-10-23T15:56:17.175Z,18.96
2022-10-23T15:58:44.638Z,18.83
2022-10-23T16:01:12.898Z,18.71
2022-10-23T16:03:40.688Z,18.65
2022-10-23T16:06:10.900Z,18.56
2022-10-23T16:08:38.692Z,18.36
2022-10-23T16:11:14.618Z,18.65
2022-10-23T16:13:43.655Z,18.75
2022-10-23T16:16:11.921Z,18.73
2022-10-23T16:18:40.414Z,18.66
2022-10-23T16:21:07.872Z,18.34
2022-10-23T16:23:35.608Z,18.75
2022-10-23T16:26:06.294Z,18.56
2022-10-23T16:28:33.761Z,18.59
2022-10-23T16:31:01.618Z,18.40
2022-10-23T16:33:29.007Z,18.83
2022-10-23T16:36:03.153Z,18.61
2022-10-23T16:38:31.260Z,18.52
2022-10-23T16:40:59.919Z,18.67
2022-10-23T16:43:29.942Z,18.89
2022-10-23T16:46:03.404Z,18.28
2022-10-23T16:48:31.736Z,18.60
2022-10-23T16:50:59.850Z,18.49
2022-10-23T16:53:29.293Z,18.63
2022-10-23T16:55:57.576Z,18.76
2022-10-23T16:58:26.637Z,18.82
2022-10-23T17:01:06.087Z,18.89
2022-10-23T17:03:37.470Z,19.02
2022-10-23T17:06:10.369Z,18.79
2022-10-23T17:08:40.015Z,18.86
2022-10-23T17:11:11.827Z,18.80
2022-10-23T17:13:45.232Z,18.99
2022-10-23T17:16:16.371Z,18.72
2022-10-23T17:18:44.948Z,18.65
2022-10-23T17:21:14.270Z,18.71
2022-10-23T17:23:42.550Z,18.60
2022-10-23T17:26:12.540Z,18.77
2022-10-23T17:28:42.731Z,18.79
2022-10-23T17:31:22.272Z,18.83
2022-10-23T17:33:53.094Z,18.73
2022-10-23T17:36:22.003Z,18.66
2022-10-23T17:38:49.744Z,18.76
2022-10-23T17:41:19.483Z,18.69
2022-10-23T17:43:48.624Z,18.72
2022-10-23T17:46:18.372Z,18.68
2022-10-23T17:48:46.178Z,18.52
2022-10-23T17:51:17.667Z,18.60
2022-10-23T17:53:47.484Z,18.84
2022-10-23T17:56:25.977Z,18.91
2022-10-23T17:58:56.195Z,18.62
2022-10-23T18:01:26.404Z,18.56
2022-10-23T18:03:55.677Z,18.88
2022-10-23T18:06:29.597Z,18.70
2022-10-23T18:08:58.541Z,18.62
2022-10-23T18:11:29.727Z,18.56
2022-10-23T18:16:28.298Z,18.93
2022-10-23T18:18:56.703Z,18.68
2022-10-23T18:21:28.639Z,18.45
2022-10-23T18:23:59.157Z,18.48
2022-10-23T18:26:29.023Z,18.41
2022-10-23T18:29:01.985Z,18.18
2022-10-23T18:31:32.714Z,18.37
2022-10-23T18:34:08.468Z,17.98
2022-10-23T18:36:39.020Z,18.01
2022-10-23T18:39:09.045Z,17.95
2022-10-23T18:41:39.980Z,18.01
2022-10-23T18:44:08.393Z,18.24
2022-10-23T18:46:36.863Z,18.04
2022-10-23T18:49:04.898Z,17.72
2022-10-23T18:51:35.812Z,17.95
2022-10-23T18:54:06.576Z,18.25
2022-10-23T18:56:36.426Z,18.41
2022-10-23T18:59:06.376Z,18.15
2022-10-23T19:01:35.552Z,18.11
2022-10-23T19:04:04.026Z,18.41
2022-10-23T19:06:32.518Z,18.12
2022-10-23T19:09:01.056Z,18.37
2022-10-23T19:11:29.357Z,18.14
2022-10-23T19:13:56.786Z,18.26
2022-10-23T19:16:29.051Z,18.29
2022-10-23T19:19:00.172Z,18.25
2022-10-23T19:21:32.165Z,18.03
2022-10-23T19:24:06.694Z,18.06
2022-10-23T19:26:35.532Z,18.06
2022-10-23T19:29:03.770Z,17.93
2022-10-23T19:31:31.874Z,18.18
2022-10-23T19:34:00.446Z,17.67
2022-10-23T19:36:27.802Z,17.80
2022-10-23T19:38:55.643Z,17.83
2022-10-23T19:41:23.906Z,17.84
2022-10-23T19:43:51.933Z,17.98
2022-10-23T19:46:19.862Z,17.59
2022-10-23T19:48:48.086Z,17.67
2022-10-23T19:51:15.916Z,17.73
2022-10-23T19:53:43.802Z,17.88
2022-10-23T19:56:13.287Z,17.78
2022-10-23T19:58:41.344Z,17.82
2022-10-23T20:01:14.928Z,17.77
2022-10-23T20:03:45.074Z,17.87
2022-10-23T20:06:14.266Z,17.70
2022-10-23T20:08:42.123Z,17.79
2022-10-23T20:11:10.468Z,17.54
2022-10-23T20:13:38.929Z,17.27
2022-10-23T20:16:08.074Z,17.76
2022-10-23T20:18:36.311Z,17.85
2022-10-23T20:21:04.318Z,17.71
2022-10-23T20:23:32.204Z,17.59
2022-10-23T20:26:05.422Z,17.84
2022-10-23T20:28:34.112Z,17.70
2022-10-23T20:31:09.168Z,17.33
2022-10-23T20:33:37.195Z,17.64
2022-10-23T20:36:07.231Z,17.38
2022-10-23T20:38:35.727Z,18.03
2022-10-23T20:41:07.887Z,17.15
2022-10-23T20:43:36.008Z,17.31
2022-10-23T20:46:08.223Z,17.57
2022-10-23T20:48:40.275Z,17.68
2022-10-23T20:51:13.690Z,17.54
2022-10-23T20:53:42.146Z,17.45
2022-10-23T20:56:14.432Z,17.25
2022-10-23T20:58:43.086Z,17.59
2022-10-23T21:01:13.172Z,17.73
2022-10-23T21:03:40.650Z,17.72
2022-10-23T21:06:16.840Z,17.93
2022-10-23T21:08:44.213Z,17.62
2022-10-23T21:11:16.596Z,17.63
2022-10-23T21:13:44.765Z,17.69
2022-10-23T21:16:12.581Z,17.55
2022-10-23T21:18:47.130Z,17.69
2022-10-23T21:21:17.462Z,17.99
2022-10-23T21:23:50.043Z,17.64
2022-10-23T21:26:18.871Z,17.57
2022-10-23T21:28:56.283Z,17.56
2022-10-23T21:31:34.560Z,17.52
2022-10-23T21:34:01.973Z,17.51
2022-10-23T21:36:31.017Z,17.60
2022-10-23T21:39:01.937Z,17.82
2022-10-23T21:41:31.868Z,18.00
2022-10-23T21:44:02.356Z,17.83
2022-10-23T21:46:31.535Z,17.70
2022-10-23T21:49:00.652Z,17.55
2022-10-23T21:51:32.442Z,17.19
2022-10-23T21:54:00.058Z,17.24
2022-10-23T21:56:30.728Z,17.33
2022-10-23T21:59:00.131Z,17.48
2022-10-23T22:01:28.405Z,17.40
2022-10-23T22:03:56.298Z,17.44
2022-10-23T22:06:28.366Z,17.53
2022-10-23T22:08:57.549Z,17.57
2022-10-23T22:11:25.638Z,17.12
2022-10-23T22:13:53.430Z,17.63
2022-10-23T22:16:21.062Z,17.49
2022-10-23T22:18:48.624Z,17.47
2022-10-23T22:21:21.550Z,17.15
2022-10-23T22:23:49.560Z,17.19
2022-10-23T22:26:26.496Z,16.89
2022-10-23T22:28:55.658Z,17.10
2022-10-23T22:31:28.440Z,17.27
2022-10-23T22:33:56.449Z,17.06
2022-10-23T22:36:24.961Z,17.34
2022-10-23T22:38:53.215Z,16.98
2022-10-23T22:41:21.068Z,17.28
2022-10-23T22:43:48.567Z,17.51
2022-10-23T22:46:18.561Z,17.78
2022-10-23T22:48:46.243Z,17.44
2022-10-23T22:51:15.333Z,17.63
2022-10-23T22:53:43.130Z,17.34
2022-10-23T22:56:14.047Z,17.14
2022-10-23T22:58:42.080Z,17.01
2022-10-23T23:01:09.367Z,16.93
2022-10-23T23:03:37.661Z,16.92
2022-10-23T23:06:06.927Z,16.77
2022-10-23T23:08:35.868Z,16.53
2022-10-23T23:11:03.954Z,16.62
2022-10-23T23:13:31.662Z,16.86
2022-10-23T23:15:59.372Z,16.74
2022-10-23T23:18:27.652Z,16.55
2022-10-23T23:20:55.013Z,16.71
2022-10-23T23:23:22.355Z,16.92
2022-10-23T23:25:50.258Z,17.06
2022-10-23T23:28:19.631Z,16.85
2022-10-23T23:30:47.959Z,16.55
2022-10-23T23:33:19.216Z,16.78
2022-10-23T23:35:48.241Z,16.68
2022-10-23T23:38:15.872Z,16.65
2022-10-23T23:40:50.572Z,16.77
2022-10-23T23:43:18.371Z,16.95
2022-10-23T23:45:46.208Z,16.73
2022-10-23T23:48:13.528Z,17.10
2022-10-23T23:50:41.206Z,17.12
2022-10-23T23:53:08.608Z,16.97
2022-10-23T23:55:36.321Z,17.20
2022-10-23T23:58:04.447Z,17.23
